Strona główna
METAR-TAF:

METAR-TAF

Lotnisko :

Port lotniczy Lipawa

Lipawa, Łotwa

Szerokość geograficzna: 56-31N, Długość geograficzna: 021-05E, wysokość: 5 m

Aktualna obserwacja pogody

Raport powstał 15 minut temu, godzina 02:20 UTC
Cisza
Temperatura 0°C
Wilgotność 93%
Ciśnienie 1032 hPa
Widzialność 10 km lub więcej

METAR: EVLA 060220Z AUTO 00000KT 9999 NCD 00/M01 Q1032

czas: 05:35 (02:35 UTC)

Prognoza

Raport powstał 32 minut temu, godzina 02:03 UTC
Prognoza ważna od 06 godzina 03 UTC do 07 godzina 03 UTC
Wiatr 7 kt od południe
Widzialność 10 km lub więcej
Brak chmur poniżej 1500 m i brak chmur cumulonimbus

TAF: EVLA 060203Z 0603/0703 18007KT CAVOK

Obserwacja i prognoza pogody dla ponad 4000 lotnisk (raport METAR i TAF).

Dostępne stacje oznaczono żółtymi i czerwonymi punktami na mapie.

Najedź kursorem aby zobaczyć nazwę stacji.

Kliknij aby zobaczyć obserwacje i prognozy pogody.

Aby zmienić mapę: kliknij na zielony przycisk z czarnym krzyżykiem, aby powiększyć; na zielony przycisk z myślnikiem, aby pomniejszyć; na zielone strzałki, aby przejść do map sąsiednich.


METAR-TAF: